sensor_id;sensor_type;location;lat;lon;timestamp;P1;durP1;ratioP1;P2;durP2;ratioP2
52764;SDS011;38650;44.536;18.664;2023-03-01T09:32:51;29.10;;;19.50;;
52764;SDS011;38650;44.536;18.664;2023-03-01T09:35:17;32.03;;;20.25;;
52764;SDS011;38650;44.536;18.664;2023-03-01T09:37:44;24.95;;;17.90;;
52764;SDS011;38650;44.536;18.664;2023-03-01T09:40:14;29.10;;;20.38;;
52764;SDS011;38650;44.536;18.664;2023-03-01T09:42:46;27.48;;;21.17;;
52764;SDS011;38650;44.536;18.664;2023-03-01T09:45:30;81.70;;;51.15;;
52764;SDS011;38650;44.536;18.664;2023-03-01T09:48:00;95.85;;;60.72;;
52764;SDS011;38650;44.536;18.664;2023-03-01T09:50:32;88.50;;;59.85;;
52764;SDS011;38650;44.536;18.664;2023-03-01T10:09:49;50.38;;;36.90;;
52764;SDS011;38650;44.536;18.664;2023-03-01T10:12:16;52.95;;;37.05;;
52764;SDS011;38650;44.536;18.664;2023-03-01T10:22:45;58.85;;;39.15;;
52764;SDS011;38650;44.536;18.664;2023-03-01T10:25:15;61.47;;;41.80;;
52764;SDS011;38650;44.536;18.664;2023-03-01T10:27:52;51.22;;;35.70;;
52764;SDS011;38650;44.536;18.664;2023-03-01T10:30:30;47.53;;;33.42;;
52764;SDS011;38650;44.536;18.664;2023-03-01T10:33:01;44.70;;;31.25;;
52764;SDS011;38650;44.536;18.664;2023-03-01T10:35:29;36.00;;;26.95;;
52764;SDS011;38650;44.536;18.664;2023-03-01T10:38:08;38.83;;;26.80;;
52764;SDS011;38650;44.536;18.664;2023-03-01T10:40:36;33.55;;;25.15;;
52764;SDS011;38650;44.536;18.664;2023-03-01T10:43:24;38.53;;;28.67;;
52764;SDS011;38650;44.536;18.664;2023-03-01T10:45:53;34.83;;;26.30;;
52764;SDS011;38650;44.536;18.664;2023-03-01T10:48:20;41.35;;;30.70;;
52764;SDS011;38650;44.536;18.664;2023-03-01T10:53:29;45.05;;;33.88;;
52764;SDS011;38650;44.536;18.664;2023-03-01T10:56:03;46.92;;;34.53;;
52764;SDS011;38650;44.536;18.664;2023-03-01T10:58:34;63.33;;;44.58;;
52764;SDS011;38650;44.536;18.664;2023-03-01T11:01:06;80.13;;;53.38;;
52764;SDS011;38650;44.536;18.664;2023-03-01T11:03:40;70.97;;;49.78;;
52764;SDS011;38650;44.536;18.664;2023-03-01T11:08:42;63.95;;;45.40;;
52764;SDS011;38650;44.536;18.664;2023-03-01T11:13:49;53.92;;;34.83;;
52764;SDS011;38650;44.536;18.664;2023-03-01T11:16:23;46.70;;;32.28;;
52764;SDS011;38650;44.536;18.664;2023-03-01T11:18:57;45.33;;;31.05;;
52764;SDS011;38650;44.536;18.664;2023-03-01T11:21:25;40.97;;;28.88;;
52764;SDS011;38650;44.536;18.664;2023-03-01T11:23:53;40.75;;;25.85;;
52764;SDS011;38650;44.536;18.664;2023-03-01T11:26:19;38.85;;;27.85;;
52764;SDS011;38650;44.536;18.664;2023-03-01T11:28:48;50.10;;;29.50;;
52764;SDS011;38650;44.536;18.664;2023-03-01T11:31:18;45.53;;;29.35;;
52764;SDS011;38650;44.536;18.664;2023-03-01T11:36:49;50.20;;;32.85;;
52764;SDS011;38650;44.536;18.664;2023-03-01T11:42:10;35.17;;;25.80;;
52764;SDS011;38650;44.536;18.664;2023-03-01T11:44:40;35.28;;;25.50;;
52764;SDS011;38650;44.536;18.664;2023-03-01T11:58:38;41.42;;;27.00;;
52764;SDS011;38650;44.536;18.664;2023-03-01T12:04:15;42.63;;;29.33;;
52764;SDS011;38650;44.536;18.664;2023-03-01T12:06:47;35.80;;;25.00;;
52764;SDS011;38650;44.536;18.664;2023-03-01T12:09:31;33.85;;;24.67;;
52764;SDS011;38650;44.536;18.664;2023-03-01T12:52:25;75.90;;;48.22;;
52764;SDS011;38650;44.536;18.664;2023-03-01T12:54:54;60.85;;;41.65;;
52764;SDS011;38650;44.536;18.664;2023-03-01T12:57:28;79.15;;;51.58;;
52764;SDS011;38650;44.536;18.664;2023-03-01T13:00:21;68.60;;;48.95;;
52764;SDS011;38650;44.536;18.664;2023-03-01T13:08:52;68.50;;;43.97;;
52764;SDS011;38650;44.536;18.664;2023-03-01T13:11:25;73.20;;;47.03;;
52764;SDS011;38650;44.536;18.664;2023-03-01T13:13:51;70.03;;;46.05;;
52764;SDS011;38650;44.536;18.664;2023-03-01T13:16:21;54.25;;;39.30;;
52764;SDS011;38650;44.536;18.664;2023-03-01T13:21:42;56.08;;;37.90;;
52764;SDS011;38650;44.536;18.664;2023-03-01T13:27:26;50.80;;;32.92;;
52764;SDS011;38650;44.536;18.664;2023-03-01T13:29:56;57.20;;;37.30;;
52764;SDS011;38650;44.536;18.664;2023-03-01T13:32:31;68.93;;;44.72;;
52764;SDS011;38650;44.536;18.664;2023-03-01T13:35:07;57.90;;;38.40;;
52764;SDS011;38650;44.536;18.664;2023-03-01T13:37:51;57.35;;;38.15;;
52764;SDS011;38650;44.536;18.664;2023-03-01T13:42:50;48.53;;;36.35;;
52764;SDS011;38650;44.536;18.664;2023-03-01T13:47:55;59.97;;;40.65;;
52764;SDS011;38650;44.536;18.664;2023-03-01T13:50:36;67.15;;;44.08;;
52764;SDS011;38650;44.536;18.664;2023-03-01T13:53:11;54.03;;;37.22;;
52764;SDS011;38650;44.536;18.664;2023-03-01T13:55:55;65.88;;;40.58;;
52764;SDS011;38650;44.536;18.664;2023-03-01T13:58:29;58.22;;;37.92;;
52764;SDS011;38650;44.536;18.664;2023-03-01T14:01:31;74.00;;;43.65;;
52764;SDS011;38650;44.536;18.664;2023-03-01T14:03:59;61.45;;;39.58;;
52764;SDS011;38650;44.536;18.664;2023-03-01T14:06:26;56.05;;;36.83;;
52764;SDS011;38650;44.536;18.664;2023-03-01T14:14:38;86.32;;;52.25;;
52764;SDS011;38650;44.536;18.664;2023-03-01T14:17:14;94.60;;;59.22;;
52764;SDS011;38650;44.536;18.664;2023-03-01T14:20:20;73.22;;;47.05;;
52764;SDS011;38650;44.536;18.664;2023-03-01T14:22:48;73.85;;;47.25;;
52764;SDS011;38650;44.536;18.664;2023-03-01T14:28:12;59.75;;;42.40;;
52764;SDS011;38650;44.536;18.664;2023-03-01T14:30:44;50.20;;;37.47;;
52764;SDS011;38650;44.536;18.664;2023-03-01T14:33:18;44.10;;;33.35;;
52764;SDS011;38650;44.536;18.664;2023-03-01T14:35:53;47.40;;;32.90;;
52764;SDS011;38650;44.536;18.664;2023-03-01T14:38:28;44.03;;;30.75;;
52764;SDS011;38650;44.536;18.664;2023-03-01T14:41:10;40.72;;;30.67;;
52764;SDS011;38650;44.536;18.664;2023-03-01T14:43:45;41.03;;;29.17;;
52764;SDS011;38650;44.536;18.664;2023-03-01T14:46:19;44.55;;;28.48;;
52764;SDS011;38650;44.536;18.664;2023-03-01T14:48:50;44.40;;;30.60;;
52764;SDS011;38650;44.536;18.664;2023-03-01T14:51:17;36.67;;;26.13;;
52764;SDS011;38650;44.536;18.664;2023-03-01T14:53:43;36.70;;;25.58;;
52764;SDS011;38650;44.536;18.664;2023-03-01T14:56:12;35.33;;;25.70;;
52764;SDS011;38650;44.536;18.664;2023-03-01T14:58:39;43.30;;;31.10;;
52764;SDS011;38650;44.536;18.664;2023-03-01T15:01:05;61.70;;;39.83;;
52764;SDS011;38650;44.536;18.664;2023-03-01T15:03:41;67.72;;;44.42;;
52764;SDS011;38650;44.536;18.664;2023-03-01T15:06:09;92.22;;;55.28;;
